Terminal Aerodrome Forecast
Issued by NWS

Home | Current Version | Previous Version | Text Only | Print | Product List | Glossary On
Versions: 1 2 3 4 5 6 7 8 9 10 11 12 13 14 15 16
351
FTUS42 KTBW 251732
TAFPIE
TAF
KPIE 251732Z 2518/2618 22006KT P6SM VCTS SCT020CB
     FM252100 29007KT P6SM SCT035
     FM260000 31007KT P6SM SCT060 BKN150
     FM260400 VRB03KT P6SM SCT060 BKN150
     FM261500 25003KT P6SM SCT040 BKN070=

USA.gov is the U.S. government's official web portal to all federal, state and local government web resources and services.